This is the latest recevied weather packets stored in our database for station/object K0PFX-8. If no packets are shown the sender has not sent any weather packets the latest 10 day(s).
| Time | Temp. | Humidity | Pressure | Rain* | Wind** | Luminosity | Snow |
|---|---|---|---|---|---|---|---|
| 1788145842 | 81° F | 47% | 761.8 mmHg | 0 in | 0 mph | - | - |
| 1788144041 | 82° F | 45% | 761.8 mmHg | 0 in | 0 mph | - | - |
| 1788143143 | 83° F | 45% | 761.8 mmHg | 0 in | 0 mph | - | - |
| 1788142242 | 83° F | 43% | 761.7 mmHg | 0 in | 0 mph | - | - |
| 1788141343 | 84° F | 43% | 761.7 mmHg | 0 in | 0 mph | - | - |
| 1788139544 | 85° F | 40% | 761.5 mmHg | 0 in | 0 mph | - | - |
| 1788137744 | 86° F | 37% | 761.3 mmHg | 0 in | 3 mph, 162° | - | - |
| 1788136842 | 87° F | 35% | 761.4 mmHg | 0 in | 1 mph, 138° | - | - |
| 1788135943 | 88° F | 33% | 761.4 mmHg | 0 in | 0 mph | - | - |
| 1788135041 | 89° F | 31% | 761.4 mmHg | 0 in | 1 mph, 111° | - | - |
| 1788134142 | 90° F | 29% | 761.4 mmHg | 0 in | 1 mph, 165° | - | - |
| 1788133241 | 91° F | 28% | 761.5 mmHg | 0 in | 2 mph, 146° | - | - |
| 1788132342 | 92° F | 25% | 761.5 mmHg | 0 in | 0 mph | - | - |
| 1788130542 | 94° F | 23% | 761.5 mmHg | 0 in | 5 mph, 127° | - | - |
| 1788127842 | 94° F | 21% | 761.5 mmHg | 0 in | 3 mph, 180° | - | - |
| 1788126040 | 94° F | 23% | 761.3 mmHg | 0 in | 4 mph, 97° | - | - |
| 1788124240 | 94° F | 23% | 761.5 mmHg | 0 in | 2 mph, 249° | - | - |
| 1788123342 | 93° F | 23% | 761.5 mmHg | 0 in | 4 mph, 110° | - | - |
| 1788119741 | 93° F | 27% | 761.9 mmHg | 0 in | 1 mph, 156° | - | - |
| 1788117942 | 92° F | 25% | 762.3 mmHg | 0 in | 4 mph, 214° | - | - |
| 1788116143 | 91° F | 27% | 762.6 mmHg | 0 in | 0 mph | - | - |
| 1788115240 | 91° F | 26% | 762.6 mmHg | 0 in | 1 mph, 110° | - | - |
| 1788114342 | 90° F | 27% | 762.7 mmHg | 0 in | 0 mph | - | - |
| 1788113440 | 89° F | 28% | 762.8 mmHg | 0 in | 6 mph, 257° | - | - |
| 1788112541 | 89° F | 31% | 763 mmHg | 0 in | 2 mph, 170° | - | - |
* Rain latest hour (hover to see other rain measurements)
** Current wind speed in m/s (hover to see current wind gust speed)